Barbados Meteorological Services
Auto gathered TAF list
Powered by Apparatus software
For Flight WS2513
Contact Number 1-(246)-535-0021/2/3/4/5/6
WEB: http://www.barbadosweather.org

**********************************************

2017/05/28 12:39
TAF TXKF 281131Z 2812/2912 25009KT 9999 FEW020 SCT300


**********************************************
2017/05/28 18:59
TAF TLPL 281659Z 2818/2918 11018KT 9999 FEW016CB BKN017 PROB30
TEMPO 5000 TSRA FEW015CB


**********************************************
2017/05/28 12:27
TAF TJSJ 281124Z 2812/2912 11005KT P6SM VCSH FEW025 SCT040
FM281300 08012KT P6SM FEW030 SCT050
FM281630 08012KT P6SM VCSH SCT025 BKN050
FM282200 10006KT P6SM VCSH SCT025 BKN040


**********************************************
2017/05/28 12:06
TAF TFFR 281100Z 2812/2912 12010KT 9999 SCT020 SCT050
TEMPO 2812/2912 3000 SHRA BKN014 SCT018TCU PROB30
TEMPO 2815/2912 12015G25KT 1000 TSRA BKN012 SCT015CB


**********************************************
2017/05/28 18:37
TAF TBPB 281700Z 2818/2918 10015KT 9999 SCT016 SCT034 PROB30
TEMPO 2818/2824 SHRA FEW012CB


**********************************************
2017/05/28 00:00
TAF TAPA 272300Z 2800/2824 08008KT 9999 SCT020 PROB30
TEMPO 2800/2806 SHRA PROB40
TEMPO 2806/2812 SHRA
TEMPO 2818/2824 SHRA


**********************************************
2017/05/28 15:14
TAF
AMD KPHL 281506Z 2815/2918 12008KT P6SM SCT050 BKN200
FM281700 15009KT P6SM BKN050
FM282300 11008KT P6SM SCT015 BKN050
TEMPO 2900/2903 BKN015 OVC050
FM290300 09008KT P6SM -SHRA OVC008
FM290700 10006KT 3SM -SHRA BR OVC004
FM291400 VRB03KT P6SM OVC012
FM291600 25006KT P6SM BKN025


**********************************************
2017/05/28 17:39
TAF
AMD KORF 281636Z 2817/2912 15007KT P6SM OVC100
TEMPO 2817/2819 4SM SHRA BKN025 OVC080
FM282300 34004KT P6SM VCSH OVC025
FM290900 28004KT P6SM BKN250


**********************************************
2017/05/28 15:57
TAF
AMD KJFK 281449Z 2815/2918 16010KT P6SM SCT015 SCT070
FM281800 15013G18KT P6SM SCT070 BKN250
FM290000 13010KT P6SM SCT015 BKN100
FM290500 11009G15KT P6SM VCSH OVC015
FM290900 10012G17KT 5SM -RA OVC007
FM291100 11013G18KT 2SM RA VCTS OVC007CB
FM291600 07008KT 2SM -DZ BR OVC005


**********************************************
2017/05/28 17:42
TAF
AMD KIAD 281639Z 2817/2918 12007KT 5SM -SHRA OVC040
FM281900 14006KT P6SM OVC050
FM282200 14007KT 5SM -SHRA OVC025
FM290600 15005KT P6SM OVC005
FM291000 18005KT P6SM BKN010
FM291300 24005KT P6SM BKN060
FM291500 27007KT P6SM BKN070


**********************************************
2017/05/28 15:52
TAF
AMD KEWR 281449Z 2815/2918 12008KT P6SM SCT015 SCT070 BKN200
FM281800 13010G16KT P6SM SCT070 BKN250
FM290000 11007KT P6SM SCT015 BKN100
FM290500 11008KT P6SM VCSH OVC015
FM290900 10010KT 5SM -RA OVC007
FM291100 08010KT 2SM RA VCTS OVC007CB
FM291600 07008KT 3SM -DZ BR OVC007


**********************************************
2017/05/28 18:21
TAF KCHS 281720Z 2818/2918 24013G20KT P6SM SCT045 BKN200
FM290000 24006KT P6SM BKN200


**********************************************
2017/05/28 14:18
TAF
AMD KBOS 281411Z 2814/2918 12011KT P6SM FEW020 SCT050
FM281800 12011KT P6SM SCT050
FM282100 15011KT P6SM BKN035
FM291400 12008KT 5SM -SHRA BR OVC090


**********************************************
2017/05/28 15:41
TAF CYYZ 281438Z 2815/2918 09005KT P6SM FEW020 FEW070 BKN270
FM281800 15012KT P6SM FEW030
FM290000 09010KT P6SM BKN060 OVC240
FM290200 07010KT 6SM -SHRA BR BKN040 OVC100
TEMPO 2902/2908 2SM -SHRA BR BKN015 OVC040 PROB30 2903/2908 VRB15G25KT 1SM TSRA BR BKN007 OVC030CB
FM290800 24007KT 3SM -RA BR BKN010 OVC025
FM291200 26010KT P6SM SCT012 BKN060
FM291500 27012G22KT P6SM SCT030
RMK NXT FCST BY 281800Z


**********************************************
2017/05/28 15:42
TAF CYUL 281438Z 2815/2912 20007KT P6SM FEW025 BKN250
FM290000 15008KT P6SM SCT070
FM290200 12008KT P6SM BKN060
BECMG 2910/2912 14012G22KT
RMK NXT FCST BY 281800Z


**********************************************
2017/05/28 15:42
TAF TAF CYOW 281438Z 2815/2912 20005KT P6SM FEW150 BKN250
FM281800 17008KT P6SM SCT050
TEMPO 2818/2905 BKN050
BECMG 2822/2824 13008KT
FM290500 11008KT P6SM SCT030 BKN060 OVC120
TEMPO 2908/2910 P6SM -SHRA BKN030 OVC060
FM291000 10010KT 3SM -RA BR SCT008 OVC020
RMK NXT FCST BY 281800Z


**********************************************
2017/05/28 12:42
TAF CYMX 281139Z 2812/2912 24005KT P6SM FEW025 SCT100 BKN250
FM281600 21007KT P6SM FEW060
BECMG 2819/2821 17005KT
FM290200 06005KT P6SM BKN060
BECMG 2910/2911 09010KT
RMK NXT FCST BY 281800Z


**********************************************